METAR Analyzer

一覧表示

Hello, Guest. (Login)

CYYZ/YYZ  -  トロント・ピアソン

観測日時
2021-05-15 16:00 (UTC) (38分前)
気温
21
露点
2
湿数
19
相対湿度
28.4%
QNH
1024.0hPa
推定現地気圧
1003.2hPa
推定海面気圧
1023.5hPa
体感温度
13.2
(無風時)
19.4
HI
19.9
気温前日比
+1
体感温度前日比
-0.9
HI前日比
+1.2
水平視程
>15SM
鉛直視程
データなし
雲底高度
24000ft AGL
V/I
VMC (VFR)
RVR
No RVR data
卓越風
7kt from 150° (130° ~ 190°)
ガスト
No gust
降水
報告なし
その他の天気
報告なし
散在する(4/8) 層積雲 @ 6000ft AGL / 散在する(1/8) 高層雲 @ 18000ft AGL / 隙間のある(1/8) 巻雲 @ 24000ft AGL

CYYZ 151600Z 15007KT 130V190 15SM SCT060 SCT180 BKN240 21/02 A3024 RMK SC4AS1CI1 AS TR SLP244 DENSITY ALT 1100FT

CYOW/YOW  -  オタワ・マクドナルド・カルティエ

観測日時
2021-05-15 16:00 (UTC) (38分前)
気温
22
露点
0
湿数
22
相対湿度
23.1%
QNH
1021.7hPa
推定現地気圧
1007.9hPa
推定海面気圧
1021.4hPa
体感温度
13.4
(無風時)
19.8
HI
20.9
気温前日比
±0
体感温度前日比
+0.3
HI前日比
±0
水平視程
>15SM
鉛直視程
データなし
雲底高度
24000ft AGL
V/I
VMC (VFR)
RVR
No RVR data
卓越風
10kt from 210° (180° ~ 240°)
ガスト
No gust
降水
報告なし
その他の天気
報告なし
少しの(1/8) 積雲 @ 6000ft AGL / 隙間のある(6/8) 巻雲 @ 24000ft AGL

CYOW 151600Z 21010KT 180V240 15SM FEW060 BKN240 22/00 A3017 RMK CU1CI6 SLP220 DENSITY ALT 1000FT

CYUL/YUL  -  モントリオール・ピエール・エリオット・トルドー

観測日時
2021-05-15 16:00 (UTC) (38分前)
気温
20
露点
5
湿数
15
相対湿度
37.3%
QNH
1021.3hPa
推定現地気圧
1017.0hPa
推定海面気圧
1021.3hPa
体感温度
11.4
(無風時)
19.1
HI
19
気温前日比
-1
体感温度前日比
-0.6
HI前日比
-1.1
水平視程
>30SM
鉛直視程
データなし
雲底高度
24000ft AGL
V/I
VMC (VFR)
RVR
No RVR data
卓越風
11kt from 210°
ガスト
16kt
降水
報告なし
その他の天気
報告なし
少しの(1/8) 層積雲 @ 4000ft AGL / 少しの(1/8) 高積雲 @ 15000ft AGL / 隙間のある(5/8) 巻雲 @ 24000ft AGL

CYUL 151600Z 21011G16KT 30SM FEW040 FEW150 BKN240 20/05 A3016 RMK SC1AC1CI5 SC TR AC TR SLP214 DENSITY ALT 500FT

CYVR/YVR  -  バンクーバー

観測日時
2021-05-15 16:00 (UTC) (38分前)
気温
14
露点
10
湿数
4
相対湿度
76.8%
QNH
1020.3hPa
推定現地気圧
1019.8hPa
推定海面気圧
1020.3hPa
体感温度
3.1
(無風時)
15.9
HI
13.5
気温前日比
-1
体感温度前日比
-3.3
HI前日比
-1.2
水平視程
>25SM
鉛直視程
データなし
雲底高度
No dense clouds
V/I
VMC (VFR)
RVR
No RVR data
卓越風
14kt from 290°
ガスト
No gust
降水
報告なし
その他の天気
報告なし
少しの(1/8) 層積雲 @ 4000ft AGL / 散在する(4/8) 巻層雲 @ 24000ft AGL

CYVR 151600Z 29014KT 25SM FEW040 SCT240 14/10 A3013 RMK SC1CS4 SC TR SLP204

5.4msec